createdAt,value
2023-03-21T00:00:21.208Z,99275.16
2023-03-21T00:03:24.179Z,99273.97
2023-03-21T00:06:27.101Z,99271.28
2023-03-21T00:09:29.861Z,99272.94
2023-03-21T00:12:37.825Z,99271.94
2023-03-21T00:16:01.920Z,99274.28
2023-03-21T00:19:07.630Z,99275.78
2023-03-21T00:22:10.424Z,99280.03
2023-03-21T00:25:13.271Z,99273.16
2023-03-21T00:28:17.494Z,99276.44
2023-03-21T00:31:20.250Z,99275.28
2023-03-21T00:34:31.910Z,99278.56
2023-03-21T00:37:45.785Z,99269.34
2023-03-21T00:40:49.404Z,99276.59
2023-03-21T00:43:55.776Z,99271.41
2023-03-21T00:47:07.549Z,99274.84
2023-03-21T00:50:11.971Z,99267.84
2023-03-21T00:53:15.433Z,99271.13
2023-03-21T00:56:18.231Z,99268.91
2023-03-21T00:59:22.431Z,99266.56
2023-03-21T01:02:26.879Z,99254.81
2023-03-21T01:05:45.439Z,99255.66
2023-03-21T01:08:53.395Z,99248.94
2023-03-21T01:11:56.347Z,99241.94
2023-03-21T01:15:00.685Z,99251.78
2023-03-21T01:18:03.427Z,99242.25
2023-03-21T01:21:07.959Z,99248.94
2023-03-21T01:24:11.268Z,99246.06
2023-03-21T01:27:14.037Z,99240.88
2023-03-21T01:30:22.716Z,99239.19
2023-03-21T01:33:26.580Z,99245.81
2023-03-21T01:36:29.682Z,99240.50
2023-03-21T01:39:35.006Z,99239.78
2023-03-21T01:42:37.815Z,99249.09
2023-03-21T01:45:59.158Z,99254.44
2023-03-21T01:49:04.889Z,99248.38
2023-03-21T01:52:15.277Z,99248.53
2023-03-21T01:55:21.874Z,99261.03
2023-03-21T01:58:25.366Z,99251.97
2023-03-21T02:01:28.372Z,99251.28
2023-03-21T02:04:32.625Z,99252.28
2023-03-21T02:07:37.505Z,99248.91
2023-03-21T02:10:40.961Z,99246.72
2023-03-21T02:13:43.722Z,99249.50
2023-03-21T02:16:53.134Z,99250.38
2023-03-21T02:20:22.270Z,99249.81
2023-03-21T02:23:48.057Z,99238.47
2023-03-21T02:27:05.167Z,99241.81
2023-03-21T02:30:29.404Z,99246.47
2023-03-21T02:33:42.557Z,99237.50
2023-03-21T02:36:51.964Z,99231.16
2023-03-21T02:39:57.189Z,99231.16
2023-03-21T02:43:04.280Z,99237.66
2023-03-21T02:46:11.386Z,99235.94
2023-03-21T02:49:18.729Z,99226.59
2023-03-21T02:52:37.304Z,99221.25
2023-03-21T02:55:43.112Z,99223.25
2023-03-21T02:58:46.573Z,99224.75
2023-03-21T03:01:51.380Z,99226.03
2023-03-21T03:04:54.393Z,99226.03
2023-03-21T03:08:03.873Z,99224.69
2023-03-21T03:11:15.589Z,99226.34
2023-03-21T03:14:49.936Z,99226.63
2023-03-21T03:17:55.617Z,99223.28
2023-03-21T03:21:02.096Z,99222.44
2023-03-21T03:24:09.649Z,99229.44
2023-03-21T03:27:15.762Z,99233.28
2023-03-21T03:30:18.867Z,99223.59
2023-03-21T03:33:23.820Z,99232.59
2023-03-21T03:36:33.132Z,99228.22
2023-03-21T03:39:41.522Z,99222.22
2023-03-21T03:42:47.485Z,99232.03
2023-03-21T03:45:51.265Z,99232.34
2023-03-21T03:48:56.153Z,99234.84
2023-03-21T03:52:00.921Z,99224.34
2023-03-21T03:55:06.135Z,99219.53
2023-03-21T03:58:19.852Z,99214.78
2023-03-21T04:01:24.921Z,99225.47
2023-03-21T04:04:29.358Z,99224.03
2023-03-21T04:07:32.228Z,99220.78
2023-03-21T04:10:36.742Z,99220.34
2023-03-21T04:13:39.632Z,99222.09
2023-03-21T04:16:42.519Z,99224.56
2023-03-21T04:19:45.583Z,99220.28
2023-03-21T04:22:48.745Z,99217.22
2023-03-21T04:25:56.773Z,99212.44
2023-03-21T04:29:01.219Z,99227.16
2023-03-21T04:32:04.017Z,99222.19
2023-03-21T04:35:08.447Z,99233.94
2023-03-21T04:38:11.281Z,99226.63
2023-03-21T04:41:15.468Z,99226.16
2023-03-21T04:44:18.786Z,99230.88
2023-03-21T04:47:22.042Z,99231.72
2023-03-21T04:50:24.918Z,99235.06
2023-03-21T04:53:27.677Z,99229.81
2023-03-21T04:56:32.533Z,99234.97
2023-03-21T04:59:35.654Z,99226.34
2023-03-21T05:02:38.556Z,99223.38
2023-03-21T05:05:41.549Z,99225.66
2023-03-21T05:08:44.442Z,99227.97
2023-03-21T05:11:49.069Z,99228.28
2023-03-21T05:14:51.895Z,99219.03
2023-03-21T05:17:55.205Z,99216.38
2023-03-21T05:20:58.961Z,99225.16
2023-03-21T05:24:03.714Z,99232.25
2023-03-21T05:27:08.476Z,99228.16
2023-03-21T05:30:21.622Z,99230.16
2023-03-21T05:33:24.377Z,99231.28
2023-03-21T05:36:27.137Z,99233.09
2023-03-21T05:39:29.958Z,99233.59
2023-03-21T05:42:34.148Z,99235.53
2023-03-21T05:45:37.293Z,99225.16
2023-03-21T05:48:40.702Z,99229.81
2023-03-21T05:51:45.041Z,99228.13
2023-03-21T05:54:48.840Z,99228.59
2023-03-21T05:57:52.952Z,99222.56
2023-03-21T06:00:55.945Z,99220.75
2023-03-21T06:03:58.789Z,99219.38
2023-03-21T06:07:01.653Z,99226.69
2023-03-21T06:10:04.467Z,99221.66
2023-03-21T06:13:08.631Z,99221.66
2023-03-21T06:16:11.426Z,99232.63
2023-03-21T06:19:14.342Z,99223.09
2023-03-21T06:22:17.300Z,99231.91
2023-03-21T06:25:21.494Z,99224.25
2023-03-21T06:28:25.856Z,99226.22
2023-03-21T06:31:34.274Z,99222.84
2023-03-21T06:34:39.294Z,99226.50
2023-03-21T06:37:43.071Z,99234.50
2023-03-21T06:40:46.755Z,99233.81
2023-03-21T06:43:51.094Z,99230.31
2023-03-21T06:46:54.247Z,99231.31
2023-03-21T06:49:57.073Z,99229.78
2023-03-21T06:52:59.946Z,99228.81
2023-03-21T06:56:02.892Z,99228.25
2023-03-21T06:59:08.525Z,99222.94
2023-03-21T07:02:12.212Z,99226.03
2023-03-21T07:05:15.474Z,99221.69
2023-03-21T07:08:18.739Z,99220.03
2023-03-21T07:11:22.101Z,99220.03
2023-03-21T07:14:26.480Z,99219.34
2023-03-21T07:17:29.296Z,99221.69
2023-03-21T07:20:32.172Z,99221.84
2023-03-21T07:23:35.057Z,99214.69
2023-03-21T07:26:37.812Z,99214.69
2023-03-21T07:29:42.184Z,99220.19
2023-03-21T07:32:45.732Z,99221.84
2023-03-21T07:35:48.532Z,99218.19
2023-03-21T07:38:51.517Z,99235.03
2023-03-21T07:41:55.693Z,99237.00
2023-03-21T07:45:00.040Z,99229.84
2023-03-21T07:48:03.180Z,99234.78
2023-03-21T07:51:06.670Z,99234.63
2023-03-21T07:54:09.488Z,99230.28
2023-03-21T07:57:13.670Z,99232.28
2023-03-21T08:00:23.171Z,99231.44
2023-03-21T08:03:29.537Z,99236.47
2023-03-21T08:06:32.691Z,99234.78
2023-03-21T08:09:36.334Z,99231.28
2023-03-21T08:12:39.209Z,99230.44
2023-03-21T08:15:43.425Z,99228.63
2023-03-21T08:18:47.177Z,99226.78
2023-03-21T08:21:51.160Z,99216.44
2023-03-21T08:24:53.938Z,99208.59
2023-03-21T08:27:56.697Z,99212.53
2023-03-21T08:31:00.904Z,99206.22
2023-03-21T08:34:03.876Z,99212.22
2023-03-21T08:37:07.164Z,99205.94
2023-03-21T08:40:13.409Z,99205.78
2023-03-21T08:43:16.195Z,99221.09
2023-03-21T08:46:20.408Z,99211.41
2023-03-21T08:49:23.165Z,99207.91
2023-03-21T08:52:25.969Z,99203.13
2023-03-21T08:55:28.741Z,99204.94
2023-03-21T08:58:32.588Z,99207.63
2023-03-21T09:01:37.150Z,99205.94
2023-03-21T09:04:40.642Z,99198.22
2023-03-21T09:07:44.056Z,99203.41
2023-03-21T09:10:46.856Z,99198.91
2023-03-21T09:13:49.643Z,99197.22
2023-03-21T09:16:53.805Z,99201.72
2023-03-21T09:19:57.375Z,99200.88
2023-03-21T09:23:01.961Z,99202.72
2023-03-21T09:26:05.952Z,99198.22
2023-03-21T09:29:08.987Z,99198.22
2023-03-21T09:32:13.520Z,99201.03
2023-03-21T09:35:18.008Z,99197.53
2023-03-21T09:38:37.086Z,99199.22
2023-03-21T09:41:54.254Z,99200.22
2023-03-21T09:45:02.468Z,99194.13
2023-03-21T09:48:10.765Z,99201.69
2023-03-21T09:51:18.106Z,99198.25
2023-03-21T09:54:25.078Z,99198.72
2023-03-21T09:57:33.193Z,99194.16
2023-03-21T10:00:38.272Z,99193.22
2023-03-21T10:03:44.036Z,99190.47
2023-03-21T10:06:50.885Z,99192.25
2023-03-21T10:09:54.755Z,99187.13
2023-03-21T10:12:58.228Z,99183.00
2023-03-21T10:16:01.842Z,99183.75
2023-03-21T10:19:11.306Z,99173.44
2023-03-21T10:22:14.141Z,99177.63
2023-03-21T10:25:18.145Z,99176.16
2023-03-21T10:28:22.476Z,99180.38
2023-03-21T10:31:26.513Z,99173.53
2023-03-21T10:34:33.733Z,99163.56
2023-03-21T10:37:36.583Z,99158.50
2023-03-21T10:40:39.372Z,99162.94
2023-03-21T10:43:43.032Z,99153.72
2023-03-21T10:46:52.481Z,99148.59
2023-03-21T10:50:07.341Z,99154.81
2023-03-21T10:53:16.745Z,99147.69
2023-03-21T10:56:19.996Z,99152.72
2023-03-21T10:59:23.393Z,99148.41
2023-03-21T11:02:27.302Z,99146.41
2023-03-21T11:05:37.323Z,99148.56
2023-03-21T11:08:41.330Z,99147.22
2023-03-21T11:11:52.391Z,99154.09
2023-03-21T11:14:55.193Z,99148.22
2023-03-21T11:17:58.451Z,99153.53
2023-03-21T11:21:05.924Z,99158.38
2023-03-21T11:24:14.935Z,99149.84
2023-03-21T11:27:17.786Z,99150.00
2023-03-21T11:30:22.251Z,99150.38
2023-03-21T11:33:28.283Z,99147.63
2023-03-21T11:36:38.937Z,99145.91
2023-03-21T11:39:43.949Z,99148.75
2023-03-21T11:42:51.970Z,99146.78
2023-03-21T11:45:58.725Z,99138.75
2023-03-21T11:49:02.577Z,99135.50
2023-03-21T11:52:13.716Z,99133.78
2023-03-21T11:55:31.616Z,99134.41
2023-03-21T11:58:38.645Z,99125.41
2023-03-21T12:01:45.098Z,99129.06
2023-03-21T12:04:52.771Z,99125.72
2023-03-21T12:08:01.691Z,99123.38
2023-03-21T12:11:09.365Z,99126.56
2023-03-21T12:14:18.448Z,99120.69
2023-03-21T12:17:28.686Z,99125.66
2023-03-21T12:20:38.402Z,99119.19
2023-03-21T12:23:47.929Z,99113.19
2023-03-21T12:26:54.039Z,99111.66
2023-03-21T12:30:05.184Z,99115.97
2023-03-21T12:33:14.884Z,99109.47
2023-03-21T12:36:23.231Z,99109.47
2023-03-21T12:39:30.878Z,99110.44
2023-03-21T12:42:45.368Z,99109.47
2023-03-21T12:45:50.702Z,99095.63
2023-03-21T12:48:55.225Z,99105.63
2023-03-21T12:52:01.210Z,99106.63
2023-03-21T12:55:08.938Z,99102.31
2023-03-21T12:58:18.332Z,99098.09
2023-03-21T13:01:23.042Z,99102.59
2023-03-21T13:04:38.195Z,99094.75
2023-03-21T13:07:43.196Z,99100.94
2023-03-21T13:10:47.811Z,99109.25
2023-03-21T13:13:53.510Z,99111.09
2023-03-21T13:17:00.930Z,99107.56
2023-03-21T13:20:09.716Z,99099.88
2023-03-21T13:23:13.589Z,99109.88
2023-03-21T13:26:17.955Z,99105.84
2023-03-21T13:29:25.637Z,99104.31
2023-03-21T13:32:30.863Z,99105.63
2023-03-21T13:35:39.070Z,99109.47
2023-03-21T13:38:43.383Z,99110.59
2023-03-21T13:41:49.039Z,99108.28
2023-03-21T13:44:54.291Z,99104.81
2023-03-21T13:47:58.203Z,99094.84
2023-03-21T13:51:02.518Z,99099.25
2023-03-21T13:54:06.663Z,99097.06
2023-03-21T13:57:22.035Z,99091.47
2023-03-21T14:00:30.184Z,99087.47
2023-03-21T14:03:35.582Z,99088.63
2023-03-21T14:06:40.549Z,99084.97
2023-03-21T14:09:45.799Z,99086.00
2023-03-21T14:12:50.541Z,99086.53
2023-03-21T14:15:56.715Z,99086.38
2023-03-21T14:19:01.934Z,99086.72
2023-03-21T14:22:05.222Z,99086.72
2023-03-21T14:25:09.704Z,99091.06
2023-03-21T14:28:18.380Z,99091.06
2023-03-21T14:31:22.268Z,99091.59
2023-03-21T14:34:26.180Z,99093.72
2023-03-21T14:37:30.527Z,99090.41
2023-03-21T14:40:33.416Z,99089.41
2023-03-21T14:43:37.541Z,99093.56
2023-03-21T14:46:41.948Z,99090.22
2023-03-21T14:49:45.010Z,99095.94
2023-03-21T14:52:47.924Z,99083.88
2023-03-21T14:55:52.866Z,99100.75
2023-03-21T14:58:57.442Z,99100.75
2023-03-21T15:02:02.768Z,99101.94
2023-03-21T15:05:11.019Z,99097.41
2023-03-21T15:08:15.593Z,99105.59
2023-03-21T15:11:18.517Z,99099.41
2023-03-21T15:14:38.697Z,99101.75
2023-03-21T15:17:41.484Z,99091.72
2023-03-21T15:20:46.914Z,99099.06
2023-03-21T15:23:52.047Z,99098.41
2023-03-21T15:26:58.475Z,99102.41
2023-03-21T15:30:02.616Z,99097.41
2023-03-21T15:33:10.157Z,99108.91
2023-03-21T15:36:13.254Z,99103.41
2023-03-21T15:39:17.019Z,99099.22
2023-03-21T15:42:28.312Z,99104.41
2023-03-21T15:45:32.504Z,99104.22
2023-03-21T15:48:35.532Z,99109.56
2023-03-21T15:51:38.427Z,99101.00
2023-03-21T15:54:44.006Z,99102.84
2023-03-21T15:57:47.917Z,99100.81
2023-03-21T16:00:55.266Z,99101.66
2023-03-21T16:03:59.193Z,99104.66
2023-03-21T16:07:03.783Z,99108.47
2023-03-21T16:10:06.601Z,99106.78
2023-03-21T16:13:12.275Z,99112.13
2023-03-21T16:16:18.747Z,99107.28
2023-03-21T16:19:22.093Z,99103.59
2023-03-21T16:22:24.825Z,99106.44
2023-03-21T16:25:27.751Z,99119.81
2023-03-21T16:28:31.588Z,99122.59
2023-03-21T16:31:36.870Z,99119.09
2023-03-21T16:34:42.154Z,99127.94
2023-03-21T16:37:45.162Z,99126.81
2023-03-21T16:40:47.929Z,99132.22
2023-03-21T16:43:50.729Z,99128.72
2023-03-21T16:46:54.845Z,99136.09
2023-03-21T16:49:57.622Z,99134.75
2023-03-21T16:53:00.450Z,99135.13
2023-03-21T16:56:05.295Z,99138.13
2023-03-21T16:59:08.149Z,99143.97
2023-03-21T17:02:15.220Z,99146.34
2023-03-21T17:05:18.329Z,99149.00
2023-03-21T17:08:21.948Z,99147.00
2023-03-21T17:11:25.626Z,99149.03
2023-03-21T17:14:28.424Z,99149.19
2023-03-21T17:17:32.525Z,99148.53
2023-03-21T17:20:37.868Z,99156.22
2023-03-21T17:23:40.959Z,99158.06
2023-03-21T17:26:43.713Z,99147.72
2023-03-21T17:29:46.568Z,99160.09
2023-03-21T17:32:50.942Z,99159.91
2023-03-21T17:35:53.871Z,99162.41
2023-03-21T17:38:57.944Z,99171.97
2023-03-21T17:42:00.715Z,99177.31
2023-03-21T17:45:03.510Z,99175.31
2023-03-21T17:48:07.664Z,99179.66
2023-03-21T17:51:12.842Z,99175.31
2023-03-21T17:54:15.673Z,99175.66
2023-03-21T17:57:18.473Z,99169.47
2023-03-21T18:00:23.030Z,99181.00
2023-03-21T18:03:27.244Z,99178.69
2023-03-21T18:06:30.044Z,99174.00
2023-03-21T18:09:33.225Z,99180.34
2023-03-21T18:12:36.006Z,99173.66
2023-03-21T18:15:44.045Z,99177.16
2023-03-21T18:18:48.667Z,99177.63
2023-03-21T18:21:51.441Z,99181.66
2023-03-21T18:24:55.997Z,99183.97
2023-03-21T18:28:10.433Z,99183.78
2023-03-21T18:31:19.884Z,99181.44
2023-03-21T18:34:24.302Z,99182.25
2023-03-21T18:37:27.628Z,99181.91
2023-03-21T18:40:30.811Z,99184.03
2023-03-21T18:46:59.091Z,99181.34
2023-03-21T18:50:14.166Z,99191.66
2023-03-21T18:53:17.652Z,99193.50
2023-03-21T18:57:13.217Z,99191.16
2023-03-21T18:59:46.539Z,99190.50
2023-03-21T19:03:04.230Z,99193.84
2023-03-21T19:06:11.709Z,99193.31
2023-03-21T19:09:15.006Z,99195.16
2023-03-21T19:12:17.792Z,99189.31
2023-03-21T19:15:21.792Z,99197.31
2023-03-21T19:18:54.101Z,99206.59
2023-03-21T19:21:51.227Z,99202.59
2023-03-21T19:24:54.108Z,99202.41
2023-03-21T19:27:57.085Z,99204.75
2023-03-21T19:31:04.273Z,99198.41
2023-03-21T19:34:07.636Z,99205.59
2023-03-21T19:37:11.761Z,99208.59
2023-03-21T19:40:15.026Z,99201.41
2023-03-21T19:43:32.311Z,99198.91
2023-03-21T19:46:36.988Z,99204.56
2023-03-21T19:50:27.280Z,99202.72
2023-03-21T19:53:04.907Z,99197.53
2023-03-21T19:56:20.353Z,99186.19
2023-03-21T19:59:24.990Z,99187.38
2023-03-21T20:05:47.898Z,99185.63
2023-03-21T20:12:16.293Z,99181.06
2023-03-21T20:15:21.795Z,99175.91
2023-03-21T20:18:25.756Z,99180.56
2023-03-21T20:21:33.837Z,99184.22
2023-03-21T20:24:44.466Z,99186.41
2023-03-21T20:27:47.395Z,99191.25
2023-03-21T20:30:51.582Z,99191.09
2023-03-21T20:33:54.301Z,99184.75
2023-03-21T20:36:58.148Z,99194.59
2023-03-21T20:40:02.407Z,99188.59
2023-03-21T20:43:40.092Z,99181.69
2023-03-21T20:46:29.094Z,99198.56
2023-03-21T20:49:32.376Z,99189.03
2023-03-21T20:53:04.914Z,99196.38
2023-03-21T20:56:02.368Z,99188.50
2023-03-21T20:59:17.409Z,99187.84
2023-03-21T21:02:26.600Z,99182.66
2023-03-21T21:05:34.366Z,99181.16
2023-03-21T21:08:38.241Z,99196.47
2023-03-21T21:15:07.186Z,99202.97
2023-03-21T21:18:10.031Z,99204.00
2023-03-21T21:21:14.079Z,99204.59
2023-03-21T21:24:16.839Z,99200.75
2023-03-21T21:27:21.123Z,99200.34
2023-03-21T21:30:24.021Z,99212.91
2023-03-21T21:33:29.278Z,99209.44
2023-03-21T21:36:32.091Z,99213.84
2023-03-21T21:39:38.034Z,99210.38
2023-03-21T21:42:43.393Z,99203.19
2023-03-21T21:45:46.668Z,99211.56
2023-03-21T21:48:49.616Z,99216.44
2023-03-21T21:51:52.402Z,99207.78
2023-03-21T21:54:55.110Z,99204.94
2023-03-21T21:57:59.212Z,99202.09
2023-03-21T22:01:02.312Z,99210.66
2023-03-21T22:04:08.402Z,99201.28
2023-03-21T22:07:14.492Z,99205.81
2023-03-21T22:10:17.427Z,99211.69
2023-03-21T22:13:21.647Z,99215.00
2023-03-21T22:16:24.525Z,99211.03
2023-03-21T22:19:27.753Z,99209.50
2023-03-21T22:22:30.894Z,99220.56
2023-03-21T22:25:34.238Z,99219.72
2023-03-21T22:28:40.547Z,99209.66
2023-03-21T22:31:45.410Z,99215.88
2023-03-21T22:34:48.159Z,99213.56
2023-03-21T22:37:51.279Z,99215.41
2023-03-21T22:40:54.672Z,99202.88
2023-03-21T22:43:58.822Z,99212.44
2023-03-21T22:47:01.729Z,99210.91
2023-03-21T22:50:04.737Z,99214.41
2023-03-21T22:53:07.565Z,99217.91
2023-03-21T22:56:11.151Z,99219.44
2023-03-21T22:59:15.597Z,99205.38
2023-03-21T23:02:18.354Z,99203.06
2023-03-21T23:05:21.202Z,99201.03
2023-03-21T23:08:23.953Z,99211.59
2023-03-21T23:11:26.836Z,99211.91
2023-03-21T23:14:31.078Z,99208.59
2023-03-21T23:17:35.644Z,99207.25
2023-03-21T23:20:38.639Z,99214.06
2023-03-21T23:23:41.868Z,99204.53
2023-03-21T23:26:44.639Z,99201.00
2023-03-21T23:29:49.091Z,99195.13
2023-03-21T23:32:51.909Z,99204.84
2023-03-21T23:35:54.694Z,99209.00
2023-03-21T23:38:57.585Z,99209.31
2023-03-21T23:42:00.436Z,99203.97
2023-03-21T23:45:04.767Z,99199.44
2023-03-21T23:48:07.842Z,99201.75
2023-03-21T23:51:10.729Z,99203.38
2023-03-21T23:54:13.913Z,99196.06
2023-03-21T23:57:17.289Z,99204.38
